Página principal
METAR-TAF:

METAR-TAF

Aeroportos :

Hagåtña, Guam, Estados Unidos

latitude: 13-29N, longitude: 144-48E, altura: 91 m

Observação actual do tempo

O boletim foi feito há 1 hora e 14 minutos, às 10:54 UTC
Vento 8 kt de este
Temperatura 27°C
Humidade 94%
Pressão 1012 hPa
Visibilidade: 16.1 km
Poucas nuvensa uma altura de 2100 ft

METAR: PGUM 121054Z 09008KT 10SM FEW021 27/26 A2988 RMK AO2 RAB03E18 SLP108 P0002 T02670261

Hora: 22:08 (12:08 UTC)

Previsão

O boletim foi feito há 48 minutos, às 11:20 UTC
Previsão válida de 12 às 12 UTC a 13 às 18 UTC
Vento 8 kt de este
Visibilidade: 10 km
Poucas nuvensa uma altura de 1700 ft
Nuvens dispersasa uma altura de 3500 ft
aguaceiros nas vizinhanças
A partir de 13 às 0100 UTC
Vento 15 kt de este
Visibilidade: 10 km
Nuvens dispersasa uma altura de 2000 ft
aguaceiros nas vizinhanças

TAF: PGUM 121120Z 1212/1318 10008KT P6SM VCSH FEW017 SCT035 FM130100 10015KT P6SM VCSH SCT020

Observações e previsões do tempo de mais de 4000 aeroportos (mensagens METAR e TAF).

As estações disponíveis são os pontos amarelos e vermelhos sobre o mapa.

Mova o rato sobre o mapa para ver o nome da estação.

Depois clique no ponto para visualizar as observações e previsões meteorológicas.

Para alterar o mapa : clique nos botões verdes com uma cruz preta para aumentar o zoom; no botão verde com uma pitada de zoom; ou nas setas verdes para mapas adjacentes.


METAR-TAF: